DIPPU EDFZ-EDWI
Flight info
| Callsign | DIPPU |
|---|---|
| Flight time | 1h 1m |
| Altitude | 9500 |
| Route | VFR |
| Aircraft | AEST/L-S/S |
Departure
| Time | 2026-04-15 18:50 |
|---|---|
| Airport | Mainz-Finthen Airfield (EDFZ) |
Arrival
| Time | 2026-04-15 19:51 |
|---|---|
| Airport | JadeWeser Airport (EDWI) |
| Time | Latitude | Longitude | Altitude | Speed | Heading |
|---|---|---|---|---|---|
| 2026-04-15 18:41 | 49.97158 | 8.14991 | 745 ft | 0 kts | 326° |
| 2026-04-15 18:45 | 49.97160 | 8.14989 | 746 ft | 3 kts | 310° |
| 2026-04-15 18:46 | 49.97143 | 8.14984 | 746 ft | 2 kts | 128° |
| 2026-04-15 18:46 | 49.97099 | 8.14993 | 746 ft | 9 kts | 116° |
| 2026-04-15 18:46 | 49.97106 | 8.15029 | 747 ft | 3 kts | 70° |
| 2026-04-15 18:46 | 49.97119 | 8.15106 | 746 ft | 11 kts | 75° |
| 2026-04-15 18:47 | 49.97115 | 8.15198 | 744 ft | 8 kts | 152° |
| 2026-04-15 18:47 | 49.97066 | 8.15282 | 743 ft | 13 kts | 100° |
| 2026-04-15 18:47 | 49.97066 | 8.15328 | 742 ft | 0 kts | 82° |
| 2026-04-15 18:48 | 49.97066 | 8.15329 | 742 ft | 0 kts | 82° |
| 2026-04-15 18:48 | 49.97061 | 8.15399 | 741 ft | 12 kts | 123° |
| 2026-04-15 18:49 | 49.97021 | 8.15409 | 743 ft | 6 kts | 258° |
| 2026-04-15 18:49 | 49.96922 | 8.14837 | 750 ft | 95 kts | 255° |
| 2026-04-15 18:49 | 49.96715 | 8.13710 | 908 ft | 116 kts | 255° |
| 2026-04-15 18:49 | 49.96831 | 8.12264 | 1035 ft | 154 kts | 297° |
| 2026-04-15 18:50 | 49.97625 | 8.11014 | 1267 ft | 174 kts | 332° |
| 2026-04-15 18:50 | 49.98831 | 8.10549 | 1563 ft | 185 kts | 356° |
| 2026-04-15 18:50 | 50.00119 | 8.10412 | 1878 ft | 191 kts | 358° |
| 2026-04-15 18:50 | 50.01461 | 8.10282 | 2192 ft | 195 kts | 358° |
| 2026-04-15 18:51 | 50.02822 | 8.10151 | 2518 ft | 197 kts | 358° |
| 2026-04-15 18:51 | 50.04192 | 8.10017 | 2845 ft | 198 kts | 358° |
| 2026-04-15 18:51 | 50.05563 | 8.09884 | 3154 ft | 197 kts | 359° |
| 2026-04-15 18:51 | 50.06936 | 8.09755 | 3404 ft | 201 kts | 359° |
| 2026-04-15 18:52 | 50.08376 | 8.09626 | 3406 ft | 213 kts | 359° |
| 2026-04-15 18:52 | 50.09891 | 8.09493 | 3355 ft | 222 kts | 359° |
| 2026-04-15 18:52 | 50.11421 | 8.09360 | 3562 ft | 216 kts | 359° |
| 2026-04-15 18:52 | 50.12905 | 8.09229 | 3832 ft | 210 kts | 359° |
| 2026-04-15 18:53 | 50.14358 | 8.09101 | 4055 ft | 208 kts | 359° |
| 2026-04-15 18:53 | 50.15802 | 8.08992 | 4270 ft | 207 kts | 359° |
| 2026-04-15 18:53 | 50.17241 | 8.08906 | 4466 ft | 207 kts | 359° |
| 2026-04-15 18:53 | 50.18677 | 8.08839 | 4664 ft | 206 kts | 359° |
| 2026-04-15 18:54 | 50.20106 | 8.08773 | 4863 ft | 205 kts | 359° |
| 2026-04-15 18:54 | 50.21531 | 8.08709 | 5078 ft | 204 kts | 359° |
| 2026-04-15 18:54 | 50.22947 | 8.08648 | 5275 ft | 203 kts | 359° |
| 2026-04-15 18:54 | 50.24382 | 8.08592 | 5353 ft | 209 kts | 360° |
| 2026-04-15 18:55 | 50.25844 | 8.08538 | 5416 ft | 213 kts | 360° |
| 2026-04-15 18:55 | 50.27349 | 8.08485 | 5407 ft | 218 kts | 360° |
| 2026-04-15 18:55 | 50.28846 | 8.08431 | 5544 ft | 213 kts | 360° |
| 2026-04-15 18:55 | 50.30299 | 8.08381 | 5849 ft | 205 kts | 360° |
| 2026-04-15 18:56 | 50.31716 | 8.08335 | 6112 ft | 201 kts | 359° |
| 2026-04-15 18:56 | 50.33103 | 8.08301 | 6393 ft | 198 kts | 359° |
| 2026-04-15 18:56 | 50.34474 | 8.08273 | 6656 ft | 196 kts | 359° |
| 2026-04-15 18:56 | 50.35844 | 8.08254 | 6883 ft | 196 kts | 360° |
| 2026-04-15 18:57 | 50.37200 | 8.08234 | 7100 ft | 193 kts | 360° |
| 2026-04-15 18:57 | 50.38539 | 8.08202 | 7317 ft | 191 kts | 359° |
| 2026-04-15 18:57 | 50.39868 | 8.08169 | 7534 ft | 190 kts | 360° |
| 2026-04-15 18:57 | 50.41183 | 8.08138 | 7740 ft | 189 kts | 359° |
| 2026-04-15 18:58 | 50.42497 | 8.08106 | 7943 ft | 188 kts | 359° |
| 2026-04-15 18:58 | 50.43805 | 8.08077 | 8165 ft | 187 kts | 360° |
| 2026-04-15 18:58 | 50.45104 | 8.08052 | 8374 ft | 188 kts | 359° |
| 2026-04-15 18:58 | 50.45975 | 8.08034 | 8515 ft | 188 kts | 359° |
| 2026-04-15 18:59 | 50.47718 | 8.08003 | 8793 ft | 189 kts | 359° |
| 2026-04-15 18:59 | 50.49032 | 8.07982 | 9011 ft | 188 kts | 359° |
| 2026-04-15 18:59 | 50.50338 | 8.07963 | 9215 ft | 187 kts | 359° |
| 2026-04-15 18:59 | 50.51645 | 8.07944 | 9416 ft | 189 kts | 359° |
| 2026-04-15 19:00 | 50.52534 | 8.07932 | 9553 ft | 189 kts | 359° |
| 2026-04-15 19:00 | 50.53830 | 8.07915 | 9752 ft | 189 kts | 359° |
| 2026-04-15 19:00 | 50.55151 | 8.07899 | 9879 ft | 193 kts | 359° |
| 2026-04-15 19:00 | 50.56525 | 8.07884 | 9865 ft | 202 kts | 360° |
| 2026-04-15 19:01 | 50.57957 | 8.07869 | 9809 ft | 209 kts | 360° |
| 2026-04-15 19:01 | 50.59420 | 8.07854 | 9791 ft | 212 kts | 360° |
| 2026-04-15 19:01 | 50.60899 | 8.07843 | 9804 ft | 213 kts | 360° |
| 2026-04-15 19:01 | 50.62380 | 8.07839 | 9809 ft | 213 kts | 360° |
| 2026-04-15 19:02 | 50.63868 | 8.07834 | 9763 ft | 214 kts | 360° |
| 2026-04-15 19:02 | 50.65359 | 8.07828 | 9760 ft | 215 kts | 360° |
| 2026-04-15 19:02 | 50.66859 | 8.07823 | 9763 ft | 215 kts | 360° |
| 2026-04-15 19:02 | 50.68354 | 8.07817 | 9761 ft | 215 kts | 360° |
| 2026-04-15 19:03 | 50.69856 | 8.07805 | 9744 ft | 215 kts | 359° |
| 2026-04-15 19:03 | 50.71352 | 8.07797 | 9765 ft | 215 kts | 360° |
| 2026-04-15 19:03 | 50.72848 | 8.07792 | 9765 ft | 215 kts | 360° |
| 2026-04-15 19:03 | 50.74348 | 8.07787 | 9761 ft | 216 kts | 360° |
| 2026-04-15 19:04 | 50.75849 | 8.07783 | 9762 ft | 216 kts | 360° |
| 2026-04-15 19:04 | 50.77355 | 8.07779 | 9760 ft | 216 kts | 360° |
| 2026-04-15 19:04 | 50.78858 | 8.07774 | 9761 ft | 216 kts | 360° |
| 2026-04-15 19:04 | 50.80361 | 8.07770 | 9766 ft | 216 kts | 360° |
| 2026-04-15 19:05 | 50.81864 | 8.07764 | 9764 ft | 216 kts | 360° |
| 2026-04-15 19:05 | 50.83366 | 8.07758 | 9766 ft | 216 kts | 360° |
| 2026-04-15 19:05 | 50.84870 | 8.07751 | 9769 ft | 216 kts | 360° |
| 2026-04-15 19:05 | 50.86374 | 8.07744 | 9774 ft | 216 kts | 360° |
| 2026-04-15 19:06 | 50.87877 | 8.07737 | 9773 ft | 216 kts | 360° |
| 2026-04-15 19:06 | 50.89361 | 8.07730 | 9773 ft | 216 kts | 360° |
| 2026-04-15 19:06 | 50.90864 | 8.07724 | 9778 ft | 216 kts | 360° |
| 2026-04-15 19:06 | 50.92374 | 8.07718 | 9777 ft | 216 kts | 360° |
| 2026-04-15 19:07 | 50.93875 | 8.07713 | 9782 ft | 216 kts | 360° |
| 2026-04-15 19:07 | 50.95382 | 8.07708 | 9787 ft | 216 kts | 360° |
| 2026-04-15 19:07 | 50.96884 | 8.07703 | 9786 ft | 216 kts | 360° |
| 2026-04-15 19:07 | 50.98387 | 8.07699 | 9787 ft | 216 kts | 360° |
| 2026-04-15 19:08 | 50.99891 | 8.07694 | 9789 ft | 216 kts | 360° |
| 2026-04-15 19:08 | 51.01394 | 8.07690 | 9791 ft | 216 kts | 360° |
| 2026-04-15 19:08 | 51.02877 | 8.07686 | 9796 ft | 216 kts | 360° |
| 2026-04-15 19:08 | 51.04383 | 8.07683 | 9798 ft | 216 kts | 360° |
| 2026-04-15 19:09 | 51.05889 | 8.07680 | 9804 ft | 217 kts | 360° |
| 2026-04-15 19:09 | 51.07399 | 8.07683 | 9799 ft | 217 kts | 360° |
| 2026-04-15 19:09 | 51.08906 | 8.07692 | 9801 ft | 217 kts | 360° |
| 2026-04-15 19:09 | 51.10414 | 8.07702 | 9806 ft | 217 kts | 360° |
| 2026-04-15 19:10 | 51.11928 | 8.07710 | 9801 ft | 219 kts | 360° |
| 2026-04-15 19:10 | 51.13452 | 8.07713 | 9801 ft | 219 kts | 360° |
| 2026-04-15 19:10 | 51.14980 | 8.07717 | 9803 ft | 219 kts | 360° |
| 2026-04-15 19:10 | 51.16503 | 8.07724 | 9802 ft | 219 kts | 360° |
| 2026-04-15 19:11 | 51.18027 | 8.07734 | 9802 ft | 219 kts | 360° |
| 2026-04-15 19:11 | 51.19552 | 8.07739 | 9804 ft | 219 kts | 360° |
| 2026-04-15 19:11 | 51.21080 | 8.07742 | 9801 ft | 219 kts | 360° |
| 2026-04-15 19:11 | 51.22605 | 8.07748 | 9802 ft | 219 kts | 360° |
| 2026-04-15 19:12 | 51.24129 | 8.07759 | 9802 ft | 219 kts | 360° |
| 2026-04-15 19:12 | 51.25649 | 8.07767 | 9799 ft | 219 kts | 360° |
| 2026-04-15 19:12 | 51.27177 | 8.07771 | 9798 ft | 219 kts | 360° |
| 2026-04-15 19:12 | 51.28701 | 8.07776 | 9799 ft | 219 kts | 360° |
| 2026-04-15 19:13 | 51.30223 | 8.07783 | 9799 ft | 219 kts | 359° |
| 2026-04-15 19:13 | 51.31753 | 8.07794 | 9798 ft | 219 kts | 359° |
| 2026-04-15 19:13 | 51.33256 | 8.07803 | 9795 ft | 219 kts | 360° |
| 2026-04-15 19:13 | 51.34782 | 8.07807 | 9793 ft | 219 kts | 360° |
| 2026-04-15 19:14 | 51.36311 | 8.07816 | 9792 ft | 219 kts | 360° |
| 2026-04-15 19:14 | 51.37836 | 8.07830 | 9793 ft | 219 kts | 360° |
| 2026-04-15 19:14 | 51.39362 | 8.07839 | 9790 ft | 219 kts | 360° |
| 2026-04-15 19:14 | 51.40888 | 8.07847 | 9789 ft | 219 kts | 360° |
| 2026-04-15 19:15 | 51.42414 | 8.07852 | 9792 ft | 219 kts | 359° |
| 2026-04-15 19:15 | 51.43939 | 8.07859 | 9787 ft | 219 kts | 360° |
| 2026-04-15 19:15 | 51.45465 | 8.07871 | 9781 ft | 219 kts | 360° |
| 2026-04-15 19:15 | 51.46991 | 8.07878 | 9784 ft | 219 kts | 360° |
| 2026-04-15 19:16 | 51.48517 | 8.07881 | 9784 ft | 219 kts | 360° |
| 2026-04-15 19:16 | 51.50043 | 8.07888 | 9785 ft | 219 kts | 360° |
| 2026-04-15 19:16 | 51.51569 | 8.07897 | 9783 ft | 219 kts | 360° |
| 2026-04-15 19:16 | 51.53097 | 8.07906 | 9780 ft | 219 kts | 360° |
| 2026-04-15 19:17 | 51.54600 | 8.07920 | 9780 ft | 219 kts | 360° |
| 2026-04-15 19:17 | 51.56123 | 8.07940 | 9779 ft | 218 kts | 360° |
| 2026-04-15 19:17 | 51.57638 | 8.07964 | 9779 ft | 218 kts | 360° |
| 2026-04-15 19:17 | 51.59155 | 8.07992 | 9782 ft | 218 kts | 360° |
| 2026-04-15 19:18 | 51.60675 | 8.08017 | 9782 ft | 218 kts | 360° |
| 2026-04-15 19:18 | 51.62196 | 8.08037 | 9783 ft | 218 kts | 360° |
| 2026-04-15 19:18 | 51.65228 | 8.08091 | 9782 ft | 217 kts | 360° |
| 2026-04-15 19:19 | 51.66742 | 8.08116 | 9782 ft | 218 kts | 359° |
| 2026-04-15 19:19 | 51.68257 | 8.08136 | 9783 ft | 218 kts | 360° |
| 2026-04-15 19:19 | 51.69772 | 8.08156 | 9784 ft | 218 kts | 360° |
| 2026-04-15 19:19 | 51.71287 | 8.08180 | 9783 ft | 218 kts | 360° |
| 2026-04-15 19:20 | 51.72801 | 8.08208 | 9782 ft | 218 kts | 360° |
| 2026-04-15 19:20 | 51.74316 | 8.08232 | 9784 ft | 218 kts | 359° |
| 2026-04-15 19:20 | 51.75833 | 8.08249 | 9786 ft | 218 kts | 360° |
| 2026-04-15 19:20 | 51.77349 | 8.08273 | 9789 ft | 218 kts | 360° |
| 2026-04-15 19:21 | 51.78863 | 8.08298 | 9781 ft | 218 kts | 360° |
| 2026-04-15 19:21 | 51.80377 | 8.08325 | 9779 ft | 218 kts | 360° |
| 2026-04-15 19:21 | 51.81890 | 8.08351 | 9781 ft | 217 kts | 360° |
| 2026-04-15 19:21 | 51.83402 | 8.08377 | 9779 ft | 217 kts | 360° |
| 2026-04-15 19:22 | 51.84912 | 8.08403 | 9781 ft | 217 kts | 360° |
| 2026-04-15 19:22 | 51.86405 | 8.08430 | 9780 ft | 217 kts | 360° |
| 2026-04-15 19:22 | 51.87915 | 8.08458 | 9780 ft | 217 kts | 360° |
| 2026-04-15 19:22 | 51.89429 | 8.08485 | 9780 ft | 217 kts | 360° |
| 2026-04-15 19:23 | 51.90939 | 8.08511 | 9781 ft | 217 kts | 360° |
| 2026-04-15 19:23 | 51.92453 | 8.08538 | 9780 ft | 217 kts | 360° |
| 2026-04-15 19:23 | 51.93963 | 8.08566 | 9780 ft | 217 kts | 360° |
| 2026-04-15 19:23 | 51.95476 | 8.08592 | 9780 ft | 217 kts | 360° |
| 2026-04-15 19:24 | 51.96985 | 8.08619 | 9780 ft | 217 kts | 360° |
| 2026-04-15 19:24 | 51.98497 | 8.08648 | 9780 ft | 217 kts | 360° |
| 2026-04-15 19:24 | 51.99987 | 8.08675 | 9780 ft | 217 kts | 360° |
| 2026-04-15 19:24 | 52.01495 | 8.08704 | 9783 ft | 216 kts | 360° |
| 2026-04-15 19:25 | 52.03020 | 8.08741 | 9780 ft | 216 kts | 360° |
| 2026-04-15 19:25 | 52.04498 | 8.08778 | 9781 ft | 216 kts | 360° |
| 2026-04-15 19:25 | 52.06002 | 8.08816 | 9781 ft | 216 kts | 360° |
| 2026-04-15 19:25 | 52.07503 | 8.08854 | 9778 ft | 216 kts | 360° |
| 2026-04-15 19:26 | 52.09005 | 8.08891 | 9778 ft | 216 kts | 360° |
| 2026-04-15 19:26 | 52.10507 | 8.08928 | 9775 ft | 216 kts | 360° |
| 2026-04-15 19:26 | 52.12008 | 8.08966 | 9776 ft | 216 kts | 360° |
| 2026-04-15 19:26 | 52.13511 | 8.09003 | 9774 ft | 216 kts | 360° |
| 2026-04-15 19:27 | 52.15015 | 8.09040 | 9775 ft | 216 kts | 360° |
| 2026-04-15 19:27 | 52.16519 | 8.09077 | 9779 ft | 216 kts | 360° |
| 2026-04-15 19:27 | 52.18022 | 8.09115 | 9778 ft | 216 kts | 360° |
| 2026-04-15 19:27 | 52.19526 | 8.09153 | 9778 ft | 216 kts | 360° |
| 2026-04-15 19:28 | 52.21029 | 8.09190 | 9777 ft | 216 kts | 360° |
| 2026-04-15 19:28 | 52.22531 | 8.09207 | 9779 ft | 216 kts | 359° |
| 2026-04-15 19:28 | 52.24033 | 8.09205 | 9773 ft | 216 kts | 359° |
| 2026-04-15 19:28 | 52.25537 | 8.09200 | 9776 ft | 216 kts | 359° |
| 2026-04-15 19:29 | 52.27039 | 8.09195 | 9775 ft | 215 kts | 359° |
| 2026-04-15 19:29 | 52.28537 | 8.09190 | 9775 ft | 215 kts | 359° |
| 2026-04-15 19:29 | 52.30032 | 8.09187 | 9773 ft | 215 kts | 359° |
| 2026-04-15 19:29 | 52.31524 | 8.09183 | 9771 ft | 214 kts | 359° |
| 2026-04-15 19:30 | 52.32998 | 8.09180 | 9771 ft | 214 kts | 359° |
| 2026-04-15 19:30 | 52.34485 | 8.09177 | 9771 ft | 214 kts | 359° |
| 2026-04-15 19:30 | 52.35974 | 8.09175 | 9768 ft | 214 kts | 359° |
| 2026-04-15 19:30 | 52.37464 | 8.09171 | 9775 ft | 214 kts | 359° |
| 2026-04-15 19:31 | 52.38953 | 8.09168 | 9776 ft | 214 kts | 359° |
| 2026-04-15 19:31 | 52.40446 | 8.09166 | 9773 ft | 214 kts | 359° |
| 2026-04-15 19:31 | 52.41937 | 8.09163 | 9769 ft | 214 kts | 359° |
| 2026-04-15 19:31 | 52.43427 | 8.09160 | 9773 ft | 214 kts | 359° |
| 2026-04-15 19:32 | 52.44916 | 8.09157 | 9773 ft | 214 kts | 359° |
| 2026-04-15 19:32 | 52.46405 | 8.09154 | 9773 ft | 214 kts | 359° |
| 2026-04-15 19:32 | 52.47893 | 8.09150 | 9769 ft | 215 kts | 359° |
| 2026-04-15 19:32 | 52.49393 | 8.09145 | 9782 ft | 215 kts | 359° |
| 2026-04-15 19:33 | 52.50897 | 8.09122 | 9771 ft | 216 kts | 359° |
| 2026-04-15 19:33 | 52.52406 | 8.09097 | 9763 ft | 217 kts | 359° |
| 2026-04-15 19:33 | 52.53912 | 8.09071 | 9772 ft | 216 kts | 359° |
| 2026-04-15 19:33 | 52.55391 | 8.09045 | 9769 ft | 215 kts | 359° |
| 2026-04-15 19:34 | 52.56886 | 8.09020 | 9769 ft | 215 kts | 359° |
| 2026-04-15 19:34 | 52.58377 | 8.08994 | 9770 ft | 214 kts | 359° |
| 2026-04-15 19:34 | 52.59866 | 8.08969 | 9765 ft | 214 kts | 359° |
| 2026-04-15 19:34 | 52.61354 | 8.08943 | 9767 ft | 214 kts | 359° |
| 2026-04-15 19:35 | 52.62839 | 8.08916 | 9768 ft | 213 kts | 359° |
| 2026-04-15 19:35 | 52.64327 | 8.08888 | 9767 ft | 213 kts | 359° |
| 2026-04-15 19:35 | 52.65815 | 8.08861 | 9763 ft | 213 kts | 359° |
| 2026-04-15 19:35 | 52.67303 | 8.08834 | 9767 ft | 213 kts | 359° |
| 2026-04-15 19:36 | 52.68791 | 8.08809 | 9766 ft | 213 kts | 359° |
| 2026-04-15 19:36 | 52.70256 | 8.08784 | 9762 ft | 213 kts | 359° |
| 2026-04-15 19:36 | 52.71742 | 8.08759 | 9752 ft | 214 kts | 359° |
| 2026-04-15 19:36 | 52.73253 | 8.08732 | 9587 ft | 221 kts | 359° |
| 2026-04-15 19:37 | 52.74820 | 8.08707 | 9301 ft | 228 kts | 359° |
| 2026-04-15 19:37 | 52.76425 | 8.08680 | 9047 ft | 233 kts | 359° |
| 2026-04-15 19:37 | 52.78064 | 8.08654 | 8763 ft | 238 kts | 359° |
| 2026-04-15 19:37 | 52.79728 | 8.08626 | 8515 ft | 239 kts | 359° |
| 2026-04-15 19:38 | 52.81394 | 8.08601 | 8286 ft | 240 kts | 359° |
| 2026-04-15 19:38 | 52.83063 | 8.08576 | 8068 ft | 241 kts | 359° |
| 2026-04-15 19:38 | 52.84743 | 8.08551 | 7852 ft | 242 kts | 359° |
| 2026-04-15 19:38 | 52.86419 | 8.08524 | 7632 ft | 239 kts | 359° |
| 2026-04-15 19:39 | 52.88070 | 8.08500 | 7407 ft | 237 kts | 359° |
| 2026-04-15 19:39 | 52.89700 | 8.08481 | 7181 ft | 236 kts | 359° |
| 2026-04-15 19:39 | 52.91343 | 8.08457 | 6954 ft | 236 kts | 359° |
| 2026-04-15 19:39 | 52.92979 | 8.08428 | 6724 ft | 235 kts | 359° |
| 2026-04-15 19:40 | 52.94612 | 8.08398 | 6482 ft | 234 kts | 359° |
| 2026-04-15 19:40 | 52.96241 | 8.08371 | 6241 ft | 234 kts | 359° |
| 2026-04-15 19:40 | 52.97869 | 8.08349 | 6006 ft | 234 kts | 359° |
| 2026-04-15 19:40 | 52.99497 | 8.08344 | 5776 ft | 234 kts | 359° |
| 2026-04-15 19:41 | 53.01128 | 8.08346 | 5543 ft | 234 kts | 359° |
| 2026-04-15 19:41 | 53.02753 | 8.08353 | 5355 ft | 233 kts | 359° |
| 2026-04-15 19:41 | 53.04368 | 8.08362 | 5178 ft | 232 kts | 359° |
| 2026-04-15 19:41 | 53.05974 | 8.08375 | 4994 ft | 230 kts | 359° |
| 2026-04-15 19:42 | 53.07573 | 8.08389 | 4797 ft | 229 kts | 359° |
| 2026-04-15 19:42 | 53.09145 | 8.08401 | 4593 ft | 229 kts | 359° |
| 2026-04-15 19:42 | 53.10740 | 8.08411 | 4394 ft | 229 kts | 359° |
| 2026-04-15 19:42 | 53.12335 | 8.08419 | 4202 ft | 229 kts | 359° |
| 2026-04-15 19:43 | 53.13934 | 8.08424 | 4011 ft | 230 kts | 359° |
| 2026-04-15 19:43 | 53.15534 | 8.08425 | 3827 ft | 230 kts | 359° |
| 2026-04-15 19:43 | 53.17137 | 8.08425 | 3646 ft | 231 kts | 359° |
| 2026-04-15 19:43 | 53.18743 | 8.08422 | 3469 ft | 231 kts | 359° |
| 2026-04-15 19:44 | 53.20344 | 8.08419 | 3285 ft | 229 kts | 359° |
| 2026-04-15 19:44 | 53.21935 | 8.08416 | 3100 ft | 228 kts | 359° |
| 2026-04-15 19:44 | 53.23521 | 8.08414 | 2917 ft | 228 kts | 359° |
| 2026-04-15 19:44 | 53.25106 | 8.08408 | 2731 ft | 227 kts | 359° |
| 2026-04-15 19:45 | 53.26684 | 8.08403 | 2546 ft | 226 kts | 359° |
| 2026-04-15 19:45 | 53.28257 | 8.08396 | 2367 ft | 226 kts | 359° |
| 2026-04-15 19:45 | 53.29827 | 8.08389 | 2168 ft | 225 kts | 359° |
| 2026-04-15 19:45 | 53.31398 | 8.08382 | 1991 ft | 225 kts | 359° |
| 2026-04-15 19:46 | 53.32959 | 8.08374 | 1797 ft | 224 kts | 359° |
| 2026-04-15 19:46 | 53.34517 | 8.08362 | 1616 ft | 224 kts | 359° |
| 2026-04-15 19:46 | 53.36072 | 8.08347 | 1428 ft | 223 kts | 359° |
| 2026-04-15 19:46 | 53.37620 | 8.08328 | 1244 ft | 222 kts | 359° |
| 2026-04-15 19:47 | 53.39145 | 8.08307 | 1068 ft | 222 kts | 359° |
| 2026-04-15 19:47 | 53.40704 | 8.08283 | 888 ft | 221 kts | 359° |
| 2026-04-15 19:47 | 53.42198 | 8.08245 | 852 ft | 211 kts | 359° |
| 2026-04-15 19:47 | 53.43633 | 8.08211 | 911 ft | 202 kts | 359° |
| 2026-04-15 19:48 | 53.45018 | 8.08177 | 936 ft | 197 kts | 359° |
| 2026-04-15 19:48 | 53.46332 | 8.08148 | 912 ft | 181 kts | 359° |
| 2026-04-15 19:48 | 53.47550 | 8.08121 | 909 ft | 170 kts | 359° |
| 2026-04-15 19:48 | 53.48316 | 8.08100 | 910 ft | 163 kts | 359° |
| 2026-04-15 19:49 | 53.49420 | 8.08173 | 930 ft | 153 kts | 13° |
| 2026-04-15 19:49 | 53.50399 | 8.08726 | 934 ft | 145 kts | 21° |
| 2026-04-15 19:49 | 53.51677 | 8.09314 | 806 ft | 139 kts | 347° |
| 2026-04-15 19:49 | 53.52138 | 8.08711 | 746 ft | 119 kts | 307° |
| 2026-04-15 19:50 | 53.52531 | 8.07628 | 539 ft | 105 kts | 270° |
| 2026-04-15 19:50 | 53.52313 | 8.06544 | 368 ft | 97 kts | 218° |
| 2026-04-15 19:50 | 53.51690 | 8.06150 | 212 ft | 95 kts | 195° |
| 2026-04-15 19:50 | 53.51066 | 8.05790 | 91 ft | 97 kts | 197° |
| 2026-04-15 19:51 | 53.50482 | 8.05403 | 25 ft | 69 kts | 201° |
| 2026-04-15 19:51 | 53.50133 | 8.05171 | 22 ft | 45 kts | 202° |
| 2026-04-15 19:51 | 53.49885 | 8.05002 | 23 ft | 33 kts | 202° |
| 2026-04-15 19:51 | 53.49777 | 8.04889 | 23 ft | 14 kts | 280° |
| 2026-04-15 19:52 | 53.49845 | 8.04848 | 22 ft | 14 kts | 18° |
| 2026-04-15 19:52 | 53.49939 | 8.04908 | 22 ft | 15 kts | 22° |
| 2026-04-15 19:52 | 53.50040 | 8.04945 | 22 ft | 15 kts | 4° |
| 2026-04-15 19:52 | 53.50146 | 8.04963 | 22 ft | 16 kts | 6° |
| 2026-04-15 19:53 | 53.50254 | 8.04986 | 22 ft | 16 kts | 7° |
| 2026-04-15 19:53 | 53.50367 | 8.05004 | 22 ft | 17 kts | 5° |
| 2026-04-15 19:53 | 53.50496 | 8.05020 | 22 ft | 20 kts | 4° |
| 2026-04-15 19:53 | 53.50636 | 8.05072 | 21 ft | 21 kts | 18° |
| 2026-04-15 19:54 | 53.50714 | 8.05203 | 21 ft | 3 kts | 98° |